Manila, Utah
Current Conditions -  °F | °C
As of 3:53 PM on Thursday 18 Dec 2014 (Local Time) from KVEL Reporting Station
Overcast Overcast  
Wind Chill: 27°   Ceiling: 1100
Heat Index: 27°   Visibility: 10mi
Dew Point: 23°   Wind: 3mph
Humidity: 85%   Direction: 90°E
Pressure: 30.16"   Gusts: NA
Location:  40.99°N, 109.72°W
Report Text: KVEL 182253Z AUTO 09003KT 10SM OVC011 M03/M05 A3016 RMK AO2 SLP248 T10281050
Loading
Personal Weather Stations






























Interactive Weather Map New forecast layout! Learn more

10-Day Weather Forecast

Advertisements
Track Severe Weather on mobile